createdAt,value
2023-01-30T00:02:42.703Z,12.50
2023-01-30T00:07:44.893Z,12.47
2023-01-30T00:12:47.998Z,9.13
2023-01-30T00:17:49.780Z,9.63
2023-01-30T00:23:00.529Z,12.70
2023-01-30T00:28:05.036Z,9.70
2023-01-30T00:33:07.265Z,12.87
2023-01-30T00:38:09.438Z,9.50
2023-01-30T00:43:15.064Z,13.87
2023-01-30T00:48:16.991Z,12.30
2023-01-30T00:53:19.064Z,12.53
2023-01-30T00:58:26.244Z,11.37
2023-01-30T01:03:28.468Z,8.97
2023-01-30T01:08:30.355Z,11.47
2023-01-30T01:13:34.040Z,14.43
2023-01-30T01:18:35.938Z,14.47
2023-01-30T01:23:38.276Z,15.37
2023-01-30T01:28:41.570Z,13.37
2023-01-30T01:33:44.130Z,12.67
2023-01-30T01:38:46.544Z,11.80
2023-01-30T01:44:02.796Z,14.07
2023-01-30T01:49:13.193Z,13.47
2023-01-30T01:54:18.775Z,15.37
2023-01-30T01:59:28.683Z,16.13
2023-01-30T02:04:32.957Z,14.47
2023-01-30T02:09:35.411Z,14.60
2023-01-30T02:14:40.070Z,14.93
2023-01-30T02:19:49.422Z,14.03
2023-01-30T02:25:16.419Z,11.53
2023-01-30T02:30:55.223Z,15.63
2023-01-30T02:36:05.911Z,13.53
2023-01-30T02:41:19.809Z,15.03
2023-01-30T02:46:32.166Z,15.53
2023-01-30T02:51:37.078Z,16.50
2023-01-30T02:56:47.308Z,16.07
2023-01-30T03:02:26.627Z,17.27
2023-01-30T03:07:43.251Z,13.20
2023-01-30T03:12:52.996Z,13.07
2023-01-30T03:17:57.612Z,14.30
2023-01-30T03:22:59.666Z,14.93
2023-01-30T03:28:05.110Z,14.60
2023-01-30T03:33:08.541Z,14.97
2023-01-30T03:38:11.183Z,13.17
2023-01-30T03:43:13.233Z,15.60
2023-01-30T03:48:16.666Z,14.67
2023-01-30T03:53:18.606Z,15.33
2023-01-30T03:58:20.742Z,13.00
2023-01-30T04:03:23.928Z,14.83
2023-01-30T04:08:26.660Z,12.33
2023-01-30T04:13:28.678Z,11.37
2023-01-30T04:18:32.096Z,13.93
2023-01-30T04:23:34.086Z,13.87
2023-01-30T04:28:37.247Z,14.50
2023-01-30T04:33:41.201Z,11.53
2023-01-30T04:38:43.527Z,10.70
2023-01-30T04:43:45.288Z,13.47
2023-01-30T04:48:48.372Z,12.00
2023-01-30T04:53:50.436Z,12.10
2023-01-30T04:58:52.531Z,11.17
2023-01-30T05:03:56.557Z,13.03
2023-01-30T05:08:59.310Z,11.87
2023-01-30T05:14:01.478Z,13.53
2023-01-30T05:19:05.022Z,12.93
2023-01-30T05:24:07.464Z,13.60
2023-01-30T05:29:10.946Z,15.33
2023-01-30T05:34:14.415Z,13.60
2023-01-30T05:39:16.416Z,13.77
2023-01-30T05:44:18.744Z,16.90
2023-01-30T05:49:22.291Z,16.37
2023-01-30T05:54:24.425Z,14.67
2023-01-30T05:59:26.513Z,18.93
2023-01-30T06:04:29.932Z,16.30
2023-01-30T06:09:31.854Z,18.20
2023-01-30T06:14:34.141Z,20.17
2023-01-30T06:19:37.514Z,19.37
2023-01-30T06:24:39.820Z,21.30
2023-01-30T06:29:42.110Z,17.63
2023-01-30T06:34:45.416Z,15.87
2023-01-30T06:39:47.642Z,19.43
2023-01-30T06:44:49.720Z,15.13
2023-01-30T06:49:53.104Z,15.63
2023-01-30T06:54:54.853Z,17.37
2023-01-30T06:59:56.636Z,16.47
2023-01-30T07:04:59.733Z,19.10
2023-01-30T07:10:08.412Z,13.53
2023-01-30T07:15:10.846Z,13.30
2023-01-30T07:20:14.275Z,18.43
2023-01-30T07:25:16.576Z,13.07
2023-01-30T07:30:19.074Z,13.73
2023-01-30T07:35:23.648Z,13.87
2023-01-30T07:40:26.235Z,16.23
2023-01-30T07:45:31.345Z,12.37
2023-01-30T07:50:34.904Z,13.80
2023-01-30T07:55:36.965Z,13.63
2023-01-30T08:00:39.103Z,11.90
2023-01-30T08:05:42.633Z,12.80
2023-01-30T08:10:44.481Z,11.90
2023-01-30T08:15:46.622Z,8.60
2023-01-30T08:20:49.657Z,7.53
2023-01-30T08:25:54.687Z,9.07
2023-01-30T08:30:57.836Z,6.67
2023-01-30T08:36:01.276Z,6.03
2023-01-30T08:41:04.949Z,4.83
2023-01-30T08:46:06.718Z,3.27
2023-01-30T08:51:10.222Z,2.43
2023-01-30T08:56:12.331Z,2.70
2023-01-30T09:01:14.076Z,4.63
2023-01-30T09:06:17.895Z,3.77
2023-01-30T09:11:20.227Z,3.37
2023-01-30T09:16:22.332Z,3.17
2023-01-30T09:21:26.027Z,6.77
2023-01-30T09:26:28.376Z,3.83
2023-01-30T09:31:30.931Z,6.00
2023-01-30T09:36:34.407Z,3.00
2023-01-30T09:41:54.330Z,1.77
2023-01-30T09:47:09.151Z,3.90
2023-01-30T09:52:27.516Z,0.83
2023-01-30T09:57:30.063Z,3.37
2023-01-30T10:02:47.734Z,3.70
2023-01-30T10:08:03.900Z,2.00
2023-01-30T10:13:18.521Z,3.67
2023-01-30T10:18:44.983Z,3.97
2023-01-30T10:24:03.358Z,4.20
2023-01-30T10:29:11.964Z,3.37
2023-01-30T10:34:22.130Z,4.77
2023-01-30T10:39:35.348Z,5.17
2023-01-30T10:44:41.043Z,4.07
2023-01-30T10:49:46.520Z,6.87
2023-01-30T10:55:00.584Z,7.10
2023-01-30T11:00:11.117Z,1.80
2023-01-30T11:05:16.320Z,4.20
2023-01-30T11:10:23.316Z,4.10
2023-01-30T11:15:39.615Z,4.60
2023-01-30T11:20:44.376Z,7.27
2023-01-30T11:26:09.187Z,10.17
2023-01-30T11:31:28.271Z,8.47
2023-01-30T11:36:38.923Z,7.17
2023-01-30T11:41:44.099Z,8.27
2023-01-30T11:46:46.897Z,9.87
2023-01-30T11:51:54.090Z,12.70
2023-01-30T11:57:01.783Z,12.10
2023-01-30T12:02:11.150Z,7.70
2023-01-30T12:07:20.755Z,7.60
2023-01-30T12:12:32.847Z,4.13
2023-01-30T12:17:42.707Z,8.53
2023-01-30T12:22:51.766Z,5.97
2023-01-30T12:28:01.901Z,7.43
2023-01-30T12:33:06.604Z,10.17
2023-01-30T12:38:18.780Z,6.73
2023-01-30T12:43:34.884Z,6.60
2023-01-30T12:49:10.111Z,4.20
2023-01-30T12:54:24.877Z,7.20
2023-01-30T12:59:37.034Z,8.63
2023-01-30T13:04:56.696Z,4.13
2023-01-30T13:10:14.736Z,6.97
2023-01-30T13:15:26.243Z,4.97
2023-01-30T13:20:44.491Z,3.43
2023-01-30T13:25:55.993Z,8.23
2023-01-30T13:31:01.277Z,7.80
2023-01-30T13:36:11.952Z,6.23
2023-01-30T13:41:17.173Z,4.30
2023-01-30T13:46:26.519Z,7.13
2023-01-30T13:51:43.142Z,4.53
2023-01-30T13:56:50.424Z,5.17
2023-01-30T14:02:19.505Z,7.67
2023-01-30T14:07:29.998Z,7.83
2023-01-30T14:12:36.291Z,5.67
2023-01-30T14:17:39.885Z,4.83
2023-01-30T14:22:51.424Z,3.60
2023-01-30T14:27:55.267Z,3.10
2023-01-30T14:32:59.682Z,5.97
2023-01-30T14:38:13.246Z,3.13
2023-01-30T14:43:37.189Z,3.03
2023-01-30T14:48:44.760Z,1.70
2023-01-30T14:53:53.683Z,3.70
2023-01-30T14:59:01.903Z,2.10
2023-01-30T15:04:05.554Z,3.40
2023-01-30T15:09:08.040Z,3.67
2023-01-30T15:14:19.375Z,1.50
2023-01-30T15:19:41.218Z,4.17
2023-01-30T15:25:22.258Z,3.70
2023-01-30T15:30:38.079Z,3.97
2023-01-30T15:35:42.868Z,4.03
2023-01-30T15:40:44.816Z,6.00
2023-01-30T15:46:03.237Z,3.50
2023-01-30T15:51:12.557Z,6.53
2023-01-30T15:56:19.557Z,1.77
2023-01-30T16:01:23.393Z,4.23
2023-01-30T16:06:30.845Z,1.93
2023-01-30T16:11:39.193Z,3.90
2023-01-30T16:16:46.653Z,4.90
2023-01-30T16:21:50.809Z,8.33
2023-01-30T16:26:55.872Z,9.37
2023-01-30T16:31:58.350Z,4.97
2023-01-30T16:37:06.374Z,7.37
2023-01-30T16:42:27.080Z,3.30
2023-01-30T16:47:29.667Z,7.37
2023-01-30T16:52:37.142Z,7.30
2023-01-30T16:57:42.875Z,7.77
2023-01-30T17:02:51.057Z,6.83
2023-01-30T17:07:56.116Z,5.50
2023-01-30T17:12:59.476Z,5.47
2023-01-30T17:18:02.013Z,4.90
2023-01-30T17:23:09.336Z,6.10
2023-01-30T17:28:18.550Z,9.70
2023-01-30T17:33:21.372Z,2.80
2023-01-30T17:38:24.380Z,5.13
2023-01-30T17:43:26.817Z,5.10
2023-01-30T17:48:29.084Z,6.97
2023-01-30T17:53:32.501Z,10.07
2023-01-30T17:58:34.275Z,7.27
2023-01-30T18:03:36.023Z,11.63
2023-01-30T18:08:39.446Z,6.03
2023-01-30T18:13:42.206Z,6.30
2023-01-30T18:18:43.938Z,6.50
2023-01-30T18:23:47.488Z,10.63
2023-01-30T18:28:49.610Z,6.43
2023-01-30T18:33:52.709Z,13.97
2023-01-30T18:38:55.874Z,8.90
2023-01-30T18:43:58.727Z,10.57
2023-01-30T18:49:00.890Z,9.73
2023-01-30T18:54:04.457Z,8.60
2023-01-30T18:59:07.635Z,13.70
2023-01-30T19:04:11.215Z,15.23
2023-01-30T19:09:15.657Z,15.77
2023-01-30T19:14:17.695Z,8.87
2023-01-30T19:19:19.446Z,11.03
2023-01-30T19:24:22.481Z,12.50
2023-01-30T19:29:24.139Z,9.37
2023-01-30T19:34:25.895Z,5.23
2023-01-30T19:39:29.028Z,9.90
2023-01-30T19:44:30.823Z,8.63
2023-01-30T19:49:35.719Z,8.63
2023-01-30T19:54:39.155Z,12.37
2023-01-30T19:59:41.347Z,11.20
2023-01-30T20:04:43.077Z,6.13
2023-01-30T20:09:46.423Z,10.50
2023-01-30T20:14:48.771Z,16.20
2023-01-30T20:19:51.324Z,9.23
2023-01-30T20:24:54.439Z,10.53
2023-01-30T20:29:56.625Z,3.00
2023-01-30T20:34:58.380Z,6.53
2023-01-30T20:40:02.296Z,4.87
2023-01-30T20:45:05.765Z,7.17
2023-01-30T20:50:09.167Z,9.10
2023-01-30T20:55:12.871Z,5.77
2023-01-30T21:00:15.133Z,7.27
2023-01-30T21:05:17.798Z,6.57
2023-01-30T21:10:21.398Z,6.33
2023-01-30T21:15:23.196Z,7.33
2023-01-30T21:20:24.915Z,2.80
2023-01-30T21:25:28.074Z,3.03
2023-01-30T21:30:29.843Z,2.80
2023-01-30T21:35:32.383Z,2.20
2023-01-30T21:40:35.513Z,3.10
2023-01-30T21:45:37.795Z,4.27
2023-01-30T21:50:40.321Z,12.33
2023-01-30T21:55:43.447Z,5.10
2023-01-30T22:00:45.732Z,2.20
2023-01-30T22:05:47.457Z,4.43
2023-01-30T22:10:50.976Z,4.17
2023-01-30T22:15:52.687Z,11.53
2023-01-30T22:20:54.430Z,3.77
2023-01-30T22:25:57.760Z,9.50
2023-01-30T22:31:05.338Z,5.37
2023-01-30T22:36:08.074Z,9.73
2023-01-30T22:41:14.430Z,7.47
2023-01-30T22:46:18.454Z,14.03
2023-01-30T22:51:22.681Z,10.53
2023-01-30T22:56:28.547Z,6.73
2023-01-30T23:01:32.460Z,8.03
2023-01-30T23:06:34.905Z,8.77
2023-01-30T23:11:40.931Z,6.97
2023-01-30T23:16:45.062Z,10.20
2023-01-30T23:21:47.503Z,6.53
2023-01-30T23:26:52.055Z,11.40
2023-01-30T23:31:54.170Z,9.80
2023-01-30T23:36:56.451Z,4.43
2023-01-30T23:42:00.039Z,8.53
2023-01-30T23:47:02.393Z,12.53
2023-01-30T23:52:04.847Z,8.37
2023-01-30T23:57:08.351Z,6.80
